createdAt,value
2019-04-11T00:00:01.298Z,31.12
2019-04-11T00:02:33.450Z,31.90
2019-04-11T00:05:06.425Z,37.47
2019-04-11T00:07:38.573Z,35.40
2019-04-11T00:10:10.942Z,40.28
2019-04-11T00:12:43.386Z,38.90
2019-04-11T00:15:15.892Z,40.12
2019-04-11T00:17:48.245Z,38.65
2019-04-11T00:20:20.170Z,40.55
2019-04-11T00:22:52.653Z,46.75
2019-04-11T00:25:25.280Z,45.30
2019-04-11T00:27:57.443Z,54.25
2019-04-11T00:30:30.305Z,45.48
2019-04-11T00:33:02.531Z,53.63
2019-04-11T00:35:34.193Z,54.65
2019-04-11T00:38:07.642Z,56.00
2019-04-11T00:40:39.676Z,44.73
2019-04-11T00:43:11.612Z,45.70
2019-04-11T00:45:43.581Z,52.65
2019-04-11T00:50:47.628Z,45.25
2019-04-11T00:53:20.511Z,53.68
2019-04-11T00:55:53.518Z,48.23
2019-04-11T00:58:25.691Z,51.60
2019-04-11T01:00:57.622Z,46.95
2019-04-11T01:03:30.490Z,46.70
2019-04-11T01:06:03.500Z,53.05
2019-04-11T01:08:35.717Z,51.42
2019-04-11T01:11:08.011Z,48.50
2019-04-11T01:13:47.696Z,53.42
2019-04-11T01:16:20.581Z,42.08
2019-04-11T01:18:52.514Z,42.98
2019-04-11T01:21:24.498Z,44.58
2019-04-11T01:23:57.506Z,43.58
2019-04-11T01:26:29.728Z,45.85
2019-04-11T01:29:01.583Z,46.70
2019-04-11T01:31:35.905Z,42.38
2019-04-11T01:34:08.575Z,46.28
2019-04-11T01:39:16.846Z,42.85
2019-04-11T01:41:48.872Z,47.67
2019-04-11T01:44:20.930Z,46.23
2019-04-11T01:46:52.603Z,41.88
2019-04-11T01:49:26.290Z,52.27
2019-04-11T01:51:58.580Z,46.05
2019-04-11T01:54:30.729Z,52.88
2019-04-11T01:57:03.479Z,52.17
2019-04-11T01:59:35.493Z,55.03
2019-04-11T02:02:09.527Z,55.60
2019-04-11T02:04:54.857Z,54.73
2019-04-11T02:07:26.904Z,54.50
2019-04-11T02:09:58.390Z,55.58
2019-04-11T02:12:31.043Z,53.23
2019-04-11T02:15:03.994Z,55.43
2019-04-11T02:17:36.979Z,59.33
2019-04-11T02:20:09.417Z,64.55
2019-04-11T02:22:46.543Z,65.40
2019-04-11T02:25:23.165Z,61.18
2019-04-11T02:27:56.036Z,67.25
2019-04-11T02:30:28.446Z,63.85
2019-04-11T02:33:01.275Z,62.83
2019-04-11T02:35:34.997Z,76.07
2019-04-11T02:38:08.031Z,74.00
2019-04-11T02:40:41.242Z,79.30
2019-04-11T02:43:15.881Z,82.33
2019-04-11T02:45:58.815Z,70.72
2019-04-11T02:48:22.098Z,72.70
2019-04-11T02:50:54.408Z,68.50
2019-04-11T02:53:30.035Z,64.27
2019-04-11T02:56:02.842Z,58.17
2019-04-11T02:58:36.709Z,58.58
2019-04-11T03:01:10.457Z,61.40
2019-04-11T03:03:42.522Z,67.12
2019-04-11T03:06:15.237Z,58.60
2019-04-11T03:08:49.017Z,58.00
2019-04-11T03:11:21.904Z,62.25
2019-04-11T03:13:55.645Z,62.85
2019-04-11T03:16:38.221Z,70.47
2019-04-11T03:19:17.964Z,52.62
2019-04-11T03:21:39.205Z,57.03
2019-04-11T03:24:10.937Z,60.50
2019-04-11T03:26:43.576Z,62.13
2019-04-11T03:29:17.619Z,62.65
2019-04-11T03:32:32.114Z,61.28
2019-04-11T03:35:16.996Z,53.98
2019-04-11T03:37:24.280Z,50.95
2019-04-11T03:39:50.850Z,53.45
2019-04-11T03:42:25.086Z,52.33
2019-04-11T03:44:44.969Z,51.00
2019-04-11T03:47:29.186Z,53.00
2019-04-11T03:49:51.952Z,47.15
2019-04-11T03:52:19.937Z,45.38
2019-04-11T03:54:53.947Z,48.48
2019-04-11T03:57:27.569Z,44.60
2019-04-11T04:00:01.062Z,47.17
2019-04-11T04:02:35.018Z,43.52
2019-04-11T04:05:08.871Z,47.03
2019-04-11T04:07:41.280Z,49.35
2019-04-11T04:10:15.671Z,48.35
2019-04-11T04:12:47.549Z,46.02
2019-04-11T04:15:37.513Z,49.03
2019-04-11T04:17:57.334Z,52.25
2019-04-11T04:20:42.042Z,54.75
2019-04-11T04:23:19.047Z,48.52
2019-04-11T04:25:51.762Z,47.67
2019-04-11T04:28:23.856Z,38.55
2019-04-11T04:33:33.243Z,38.75
2019-04-11T04:36:06.506Z,41.63
2019-04-11T04:38:39.805Z,40.05
2019-04-11T04:41:22.436Z,42.58
2019-04-11T04:43:49.102Z,43.83
2019-04-11T04:46:34.773Z,42.15
2019-04-11T04:48:55.992Z,40.17
2019-04-11T04:51:28.928Z,33.40
2019-04-11T04:54:01.453Z,40.80
2019-04-11T04:56:34.914Z,33.23
2019-04-11T04:59:09.446Z,32.88
2019-04-11T05:01:41.718Z,32.90
2019-04-11T05:04:15.774Z,29.00
2019-04-11T05:06:50.810Z,37.08
2019-04-11T05:09:23.545Z,33.38
2019-04-11T05:11:55.540Z,30.95
2019-04-11T05:14:28.168Z,32.90
2019-04-11T05:17:02.475Z,36.65
2019-04-11T05:19:34.229Z,27.65
2019-04-11T05:22:08.475Z,31.65
2019-04-11T05:24:41.067Z,63.17
2019-04-11T05:27:12.819Z,34.60
2019-04-11T05:29:45.901Z,30.30
2019-04-11T05:32:17.657Z,29.12
2019-04-11T05:34:49.714Z,34.10
2019-04-11T05:37:22.727Z,31.35
2019-04-11T05:39:54.574Z,37.00
2019-04-11T05:42:27.386Z,29.42
2019-04-11T05:44:59.254Z,38.63
2019-04-11T05:47:31.712Z,34.67
2019-04-11T05:50:20.220Z,34.95
2019-04-11T05:52:52.469Z,34.20
2019-04-11T05:55:25.905Z,33.80
2019-04-11T05:58:00.819Z,45.20
2019-04-11T06:00:49.977Z,42.13
2019-04-11T06:03:23.690Z,94.03
2019-04-11T06:06:06.613Z,97.78
2019-04-11T06:08:40.200Z,108.92
2019-04-11T06:11:24.150Z,126.67
2019-04-11T06:14:00.737Z,120.67
2019-04-11T06:16:39.940Z,114.10
2019-04-11T06:19:23.415Z,139.80
2019-04-11T06:22:00.286Z,161.47
2019-04-11T06:24:36.679Z,170.65
2019-04-11T06:27:11.298Z,166.97
2019-04-11T06:30:01.268Z,160.35
2019-04-11T06:32:52.093Z,162.07
2019-04-11T06:35:26.855Z,146.85
2019-04-11T06:38:03.186Z,123.02
2019-04-11T06:40:44.011Z,103.47
2019-04-11T06:43:18.342Z,106.90
2019-04-11T06:46:11.172Z,107.40
2019-04-11T06:48:56.575Z,114.25
2019-04-11T06:51:33.313Z,103.12
2019-04-11T06:54:23.292Z,62.25
2019-04-11T06:56:55.285Z,69.62
2019-04-11T06:59:34.568Z,75.12
2019-04-11T07:02:16.450Z,85.53
2019-04-11T07:04:51.850Z,54.77
2019-04-11T07:07:28.793Z,57.03
2019-04-11T07:10:02.148Z,68.62
2019-04-11T07:12:39.149Z,73.00
2019-04-11T07:15:14.448Z,74.75
2019-04-11T07:18:07.493Z,106.32
2019-04-11T07:20:43.917Z,101.90
2019-04-11T07:23:33.680Z,94.80
2019-04-11T07:26:13.223Z,95.85
2019-04-11T07:28:47.906Z,86.28
2019-04-11T07:31:21.685Z,95.87
2019-04-11T07:33:56.237Z,86.40
2019-04-11T07:36:46.265Z,104.10
2019-04-11T07:39:25.722Z,118.37
2019-04-11T07:42:00.306Z,117.33
2019-04-11T07:44:38.583Z,118.08
2019-04-11T07:47:18.606Z,98.67
2019-04-11T07:49:49.639Z,107.85
2019-04-11T07:52:27.222Z,99.15
2019-04-11T07:55:00.179Z,103.83
2019-04-11T07:57:33.744Z,99.15
2019-04-11T08:00:36.577Z,121.13
2019-04-11T08:03:04.589Z,118.85
2019-04-11T08:05:56.602Z,112.15
2019-04-11T08:08:41.874Z,156.20
2019-04-11T08:11:15.860Z,167.43
2019-04-11T08:13:53.586Z,181.47
2019-04-11T08:16:45.361Z,184.57
2019-04-11T08:19:35.172Z,195.38
2019-04-11T08:22:14.862Z,194.97
2019-04-11T08:25:05.011Z,197.00
2019-04-11T08:27:50.033Z,176.00
2019-04-11T08:30:12.775Z,147.02
2019-04-11T08:32:46.442Z,143.17
2019-04-11T08:35:40.175Z,140.03
2019-04-11T08:40:55.532Z,101.00
2019-04-11T08:43:35.150Z,98.75
2019-04-11T08:46:08.898Z,108.22
2019-04-11T08:48:42.805Z,58.02
2019-04-11T08:51:17.165Z,41.70
2019-04-11T08:54:07.124Z,35.75
2019-04-11T08:56:41.107Z,34.10
2019-04-11T08:59:33.574Z,32.65
2019-04-11T09:02:06.853Z,39.13
2019-04-11T09:04:41.225Z,54.23
2019-04-11T09:07:15.343Z,63.38
2019-04-11T09:09:48.818Z,75.80
2019-04-11T09:12:20.605Z,74.92
2019-04-11T09:15:02.880Z,79.82
2019-04-11T09:17:36.709Z,98.10
2019-04-11T09:20:11.461Z,75.52
2019-04-11T09:22:47.679Z,78.15
2019-04-11T09:25:21.375Z,78.22
2019-04-11T09:28:06.454Z,73.78
2019-04-11T09:30:57.007Z,79.80
2019-04-11T09:33:39.719Z,50.88
2019-04-11T09:36:30.539Z,57.05
2019-04-11T09:39:17.102Z,68.02
2019-04-11T09:42:00.924Z,66.50
2019-04-11T09:44:49.954Z,60.17
2019-04-11T09:47:41.635Z,56.95
2019-04-11T09:50:30.047Z,58.40
2019-04-11T09:53:02.222Z,54.80
2019-04-11T09:58:27.522Z,55.08
2019-04-11T10:01:01.672Z,73.15
2019-04-11T10:03:36.577Z,68.00
2019-04-11T10:06:22.026Z,68.25
2019-04-11T10:08:55.853Z,72.25
2019-04-11T10:11:36.177Z,51.37
2019-04-11T10:14:13.778Z,86.90
2019-04-11T10:16:56.450Z,77.50
2019-04-11T10:22:08.853Z,137.15
2019-04-11T10:24:51.456Z,113.40
2019-04-11T10:27:31.007Z,90.20
2019-04-11T10:30:19.978Z,92.67
2019-04-11T10:32:59.444Z,84.92
2019-04-11T10:35:42.729Z,70.78
2019-04-11T10:38:16.265Z,66.70
2019-04-11T10:40:50.379Z,65.20
2019-04-11T10:43:22.571Z,65.30
2019-04-11T10:48:38.812Z,78.55
2019-04-11T10:51:12.951Z,78.60
2019-04-11T10:53:44.632Z,100.27
2019-04-11T10:56:34.814Z,83.50
2019-04-11T10:59:07.078Z,56.42
2019-04-11T11:01:40.676Z,61.28
2019-04-11T11:04:18.044Z,74.45
2019-04-11T11:06:51.871Z,67.45
2019-04-11T11:09:26.236Z,52.05
2019-04-11T11:12:05.508Z,54.30
2019-04-11T11:14:57.079Z,67.67
2019-04-11T11:18:20.517Z,59.65
2019-04-11T11:20:29.994Z,67.30
2019-04-11T11:22:58.327Z,66.35
2019-04-11T11:25:37.437Z,62.62
2019-04-11T11:28:09.752Z,55.55
2019-04-11T11:30:59.177Z,53.92
2019-04-11T11:33:32.632Z,59.05
2019-04-11T11:36:25.719Z,53.58
2019-04-11T11:39:15.389Z,52.80
2019-04-11T11:41:48.942Z,56.60
2019-04-11T11:44:24.467Z,53.08
2019-04-11T11:47:12.951Z,59.65
2019-04-11T11:49:54.600Z,57.05
2019-04-11T11:52:36.053Z,65.75
2019-04-11T11:55:10.379Z,62.70
2019-04-11T11:57:44.838Z,60.15
2019-04-11T12:00:21.435Z,58.38
2019-04-11T12:03:02.493Z,57.13
2019-04-11T12:05:36.811Z,60.78
2019-04-11T12:08:28.837Z,61.65
2019-04-11T12:11:02.493Z,70.30
2019-04-11T12:13:40.590Z,58.50
2019-04-11T12:16:20.732Z,54.27
2019-04-11T12:18:54.380Z,61.83
2019-04-11T12:21:28.496Z,58.33
2019-04-11T12:24:07.030Z,60.38
2019-04-11T12:26:47.609Z,67.65
2019-04-11T12:29:38.616Z,69.15
2019-04-11T12:32:17.360Z,71.47
2019-04-11T12:34:59.863Z,71.80
2019-04-11T12:37:33.679Z,68.60
2019-04-11T12:40:18.285Z,73.12
2019-04-11T12:42:50.152Z,70.57
2019-04-11T12:45:26.927Z,73.65
2019-04-11T12:48:01.166Z,67.55
2019-04-11T12:50:49.517Z,68.90
2019-04-11T12:53:21.248Z,61.88
2019-04-11T12:55:54.869Z,70.87
2019-04-11T12:58:30.991Z,66.42
2019-04-11T13:01:04.737Z,70.80
2019-04-11T13:03:54.809Z,86.97
2019-04-11T13:06:40.055Z,79.85
2019-04-11T13:09:19.671Z,78.67
2019-04-11T13:12:09.927Z,78.72
2019-04-11T13:14:45.927Z,70.72
2019-04-11T13:17:19.419Z,66.62
2019-04-11T13:20:08.926Z,59.27
2019-04-11T13:22:41.222Z,58.95
2019-04-11T13:25:31.407Z,58.23
2019-04-11T13:28:03.377Z,61.35
2019-04-11T13:30:36.861Z,63.52
2019-04-11T13:33:11.102Z,62.75
2019-04-11T13:35:58.282Z,70.35
2019-04-11T13:38:32.320Z,52.05
2019-04-11T13:41:21.579Z,49.77
2019-04-11T13:43:55.713Z,48.98
2019-04-11T13:46:31.978Z,48.20
2019-04-11T13:49:21.754Z,45.43
2019-04-11T13:52:11.100Z,42.43
2019-04-11T13:54:56.874Z,42.43
2019-04-11T13:57:32.710Z,39.45
2019-04-11T14:00:24.381Z,40.60
2019-04-11T14:02:58.084Z,38.30
2019-04-11T14:05:31.534Z,37.95
2019-04-11T14:08:03.452Z,37.95
2019-04-11T14:10:35.474Z,43.28
2019-04-11T14:13:08.829Z,38.10
2019-04-11T14:15:45.341Z,39.08
2019-04-11T14:18:19.272Z,43.55
2019-04-11T14:20:52.778Z,45.30
2019-04-11T14:23:26.288Z,44.25
2019-04-11T14:25:59.565Z,53.10
2019-04-11T14:28:39.128Z,55.55
2019-04-11T14:31:29.093Z,57.73
2019-04-11T14:34:02.563Z,55.88
2019-04-11T14:36:39.089Z,53.55
2019-04-11T14:39:12.727Z,51.13
2019-04-11T14:41:49.135Z,50.65
2019-04-11T14:44:21.027Z,45.63
2019-04-11T14:47:10.731Z,50.83
2019-04-11T14:49:45.158Z,55.30
2019-04-11T14:52:33.401Z,41.08
2019-04-11T14:55:08.550Z,38.95
2019-04-11T14:57:47.046Z,43.65
2019-04-11T15:00:24.984Z,36.58
2019-04-11T15:03:02.845Z,40.23
2019-04-11T15:05:44.575Z,40.98
2019-04-11T15:08:17.662Z,44.63
2019-04-11T15:11:01.462Z,42.05
2019-04-11T15:13:35.159Z,42.33
2019-04-11T15:16:24.981Z,37.50
2019-04-11T15:18:58.388Z,42.10
2019-04-11T15:21:47.993Z,39.13
2019-04-11T15:24:20.226Z,46.68
2019-04-11T15:26:56.817Z,46.42
2019-04-11T15:29:30.010Z,44.63
2019-04-11T15:32:19.255Z,41.02
2019-04-11T15:34:52.882Z,40.33
2019-04-11T15:37:32.917Z,43.23
2019-04-11T15:40:08.341Z,33.42
2019-04-11T15:42:47.857Z,35.15
2019-04-11T15:45:21.109Z,35.68
2019-04-11T15:47:57.436Z,32.67
2019-04-11T15:50:47.039Z,31.40
2019-04-11T15:53:36.972Z,36.38
2019-04-11T15:56:27.262Z,32.28
2019-04-11T15:59:12.930Z,29.98
2019-04-11T16:01:56.624Z,32.30
2019-04-11T16:04:30.287Z,35.50
2019-04-11T16:07:12.131Z,30.95
2019-04-11T16:09:46.033Z,33.23
2019-04-11T16:12:19.375Z,38.63
2019-04-11T16:15:09.515Z,31.48
2019-04-11T16:17:59.081Z,29.32
2019-04-11T16:20:31.154Z,28.95
2019-04-11T16:23:21.157Z,39.45
2019-04-11T16:25:53.319Z,36.28
2019-04-11T16:28:38.238Z,38.67
2019-04-11T16:31:10.321Z,42.38
2019-04-11T16:33:49.659Z,35.58
2019-04-11T16:36:27.248Z,41.18
2019-04-11T16:39:04.363Z,36.73
2019-04-11T16:41:54.533Z,34.95
2019-04-11T16:44:46.288Z,44.85
2019-04-11T16:47:34.921Z,38.98
2019-04-11T16:50:06.849Z,49.08
2019-04-11T16:52:39.327Z,42.48
2019-04-11T16:55:11.528Z,38.88
2019-04-11T16:57:44.220Z,47.27
2019-04-11T17:00:20.361Z,39.78
2019-04-11T17:02:54.729Z,46.73
2019-04-11T17:05:26.811Z,46.83
2019-04-11T17:08:15.167Z,39.27
2019-04-11T17:11:00.266Z,45.48
2019-04-11T17:13:32.620Z,98.47
2019-04-11T17:16:07.178Z,44.88
2019-04-11T17:18:38.822Z,56.02
2019-04-11T17:21:10.672Z,55.78
2019-04-11T17:23:46.833Z,44.27
2019-04-11T17:26:16.809Z,52.53
2019-04-11T17:28:48.558Z,39.73
2019-04-11T17:31:20.666Z,47.80
2019-04-11T17:33:52.442Z,47.23
2019-04-11T17:36:24.324Z,40.60
2019-04-11T17:38:55.856Z,50.45
2019-04-11T17:41:28.221Z,44.25
2019-04-11T17:44:00.922Z,53.45
2019-04-11T17:46:33.953Z,60.43
2019-04-11T17:49:06.310Z,58.52
2019-04-11T17:51:38.531Z,62.60
2019-04-11T17:54:10.922Z,56.77
2019-04-11T17:59:14.336Z,67.42
2019-04-11T18:01:46.577Z,65.78
2019-04-11T18:04:18.158Z,51.65
2019-04-11T18:06:50.122Z,56.92
2019-04-11T18:09:25.570Z,69.12
2019-04-11T18:11:56.247Z,53.45
2019-04-11T18:14:30.747Z,49.83
2019-04-11T18:17:04.526Z,55.33
2019-04-11T18:19:36.234Z,50.15
2019-04-11T18:22:13.344Z,50.73
2019-04-11T18:24:42.942Z,55.95
2019-04-11T18:29:45.996Z,50.83
2019-04-11T18:32:17.704Z,56.15
2019-04-11T18:34:49.591Z,63.08
2019-04-11T18:37:21.326Z,61.30
2019-04-11T18:39:53.304Z,50.48
2019-04-11T18:42:25.858Z,60.58
2019-04-11T18:47:28.915Z,55.50
2019-04-11T18:50:00.628Z,56.73
2019-04-11T18:52:32.611Z,59.08
2019-04-11T18:55:06.715Z,106.90
2019-04-11T18:57:38.488Z,422.57
2019-04-11T19:00:13.182Z,108.55
2019-04-11T19:02:45.262Z,69.92
2019-04-11T19:05:28.252Z,67.25
2019-04-11T19:07:51.128Z,96.72
2019-04-11T19:10:23.024Z,70.83
2019-04-11T19:12:55.489Z,66.70
2019-04-11T19:15:27.557Z,70.20
2019-04-11T19:18:06.382Z,67.67
2019-04-11T19:20:32.967Z,65.60
2019-04-11T19:23:07.621Z,69.60
2019-04-11T19:25:42.377Z,70.97
2019-04-11T19:28:12.362Z,74.53
2019-04-11T19:30:44.711Z,74.70
2019-04-11T19:33:19.100Z,80.62
2019-04-11T19:35:51.320Z,66.07
2019-04-11T19:38:27.962Z,74.05
2019-04-11T19:40:59.693Z,91.15
2019-04-11T19:43:32.283Z,72.10
2019-04-11T19:46:04.074Z,69.87
2019-04-11T19:48:36.380Z,73.80
2019-04-11T19:51:10.795Z,68.00
2019-04-11T19:53:43.014Z,59.25
2019-04-11T19:56:22.476Z,66.05
2019-04-11T19:58:54.162Z,67.00
2019-04-11T20:01:26.105Z,64.17
2019-04-11T20:03:58.199Z,68.83
2019-04-11T20:06:30.233Z,63.40
2019-04-11T20:09:02.446Z,64.75
2019-04-11T20:11:35.887Z,60.43
2019-04-11T20:14:08.179Z,60.55
2019-04-11T20:16:42.055Z,68.10
2019-04-11T20:19:14.483Z,80.50
2019-04-11T20:21:46.554Z,66.65
2019-04-11T20:24:18.374Z,64.65
2019-04-11T20:26:50.946Z,71.57
2019-04-11T20:29:22.697Z,78.12
2019-04-11T20:31:54.987Z,68.30
2019-04-11T20:34:28.160Z,62.90
2019-04-11T20:37:00.149Z,63.45
2019-04-11T20:39:33.105Z,67.67
2019-04-11T20:42:05.284Z,66.92
2019-04-11T20:44:37.658Z,61.80
2019-04-11T20:49:42.858Z,66.25
2019-04-11T20:52:14.614Z,61.58
2019-04-11T20:54:46.256Z,56.48
2019-04-11T20:57:25.535Z,119.37
2019-04-11T20:59:52.910Z,57.35
2019-04-11T21:02:28.396Z,54.15
2019-04-11T21:04:58.879Z,62.88
2019-04-11T21:07:32.579Z,64.07
2019-04-11T21:10:06.081Z,70.70
2019-04-11T21:12:38.075Z,61.53
2019-04-11T21:15:10.193Z,73.83
2019-04-11T21:17:42.526Z,78.70
2019-04-11T21:20:14.238Z,81.72
2019-04-11T21:22:46.228Z,80.55
2019-04-11T21:25:18.039Z,75.72
2019-04-11T21:27:50.221Z,73.40
2019-04-11T21:32:53.049Z,87.47
2019-04-11T21:35:24.783Z,87.00
2019-04-11T21:37:57.901Z,85.13
2019-04-11T21:40:35.643Z,75.92
2019-04-11T21:43:06.176Z,72.62
2019-04-11T21:45:38.474Z,76.77
2019-04-11T21:48:10.375Z,87.33
2019-04-11T21:50:42.185Z,84.92
2019-04-11T21:53:14.981Z,78.25
2019-04-11T21:55:47.651Z,83.87
2019-04-11T21:58:20.553Z,83.47
2019-04-11T22:03:26.740Z,80.10
2019-04-11T22:06:00.102Z,90.38
2019-04-11T22:08:34.536Z,84.85
2019-04-11T22:11:09.825Z,85.80
2019-04-11T22:13:40.911Z,88.37
2019-04-11T22:16:14.288Z,85.38
2019-04-11T22:18:46.323Z,88.47
2019-04-11T22:21:18.173Z,77.47
2019-04-11T22:23:50.169Z,94.00
2019-04-11T22:26:22.056Z,94.60
2019-04-11T22:28:55.112Z,95.05
2019-04-11T22:31:27.931Z,94.97
2019-04-11T22:34:17.734Z,91.82
2019-04-11T22:36:49.989Z,101.90
2019-04-11T22:39:21.602Z,100.65
2019-04-11T22:41:53.812Z,110.60
2019-04-11T22:44:25.781Z,75.20
2019-04-11T22:46:57.773Z,84.70
2019-04-11T22:49:29.487Z,91.47
2019-04-11T22:52:01.316Z,105.05
2019-04-11T22:54:33.826Z,109.78
2019-04-11T22:57:06.227Z,102.95
2019-04-11T22:59:37.764Z,95.12
2019-04-11T23:02:11.520Z,101.92
2019-04-11T23:04:46.931Z,98.07
2019-04-11T23:07:17.779Z,106.95
2019-04-11T23:09:50.232Z,105.95
2019-04-11T23:12:22.174Z,108.47
2019-04-11T23:14:54.022Z,107.15
2019-04-11T23:17:26.437Z,111.35
2019-04-11T23:19:58.351Z,117.60
2019-04-11T23:22:30.766Z,107.47
2019-04-11T23:25:03.062Z,113.32
2019-04-11T23:27:35.278Z,110.15
2019-04-11T23:30:08.461Z,109.40
2019-04-11T23:32:41.108Z,107.75
2019-04-11T23:35:13.104Z,110.28
2019-04-11T23:37:51.952Z,105.33
2019-04-11T23:40:24.840Z,105.50
2019-04-11T23:42:56.363Z,107.20
2019-04-11T23:45:29.865Z,124.45
2019-04-11T23:48:01.467Z,124.65
2019-04-11T23:50:33.892Z,140.80
2019-04-11T23:53:05.867Z,130.07
2019-04-11T23:55:37.674Z,127.72
2019-04-11T23:58:09.574Z,122.90
